Time;durP1;ratioP1;P1;durP2;ratioP2;P2;SDS_P1;SDS_P2;PMS_P1;PMS_P2;Temp;Humidity;BMP_temperature;BMP_pressure;BME280_temperature;BME280_humidity;BME280_pressure;Samples;Min_cycle;Max_cycle;Signal;HPM_P1;HPM_P2
2022/02/05 00:00:30;;;;;;;2.10;1.20;;;6.30;99.90;;;;;;4976801;28;20201;-55
2022/02/05 00:05:58;;;;;;;0.70;0.70;;;6.30;99.90;;;;;;4935242;29;20266;-54
2022/02/05 00:38:20;;;;;;;1.30;1.20;;;6.60;99.90;;;;;;4935179;29;20250;-50
2022/02/05 00:40:59;;;;;;;1.40;1.30;;;6.70;99.90;;;;;;4934854;29;20209;-55
2022/02/05 00:43:28;;;;;;;1.30;1.20;;;6.60;99.90;;;;;;4964788;28;20205;-56
2022/02/05 00:45:55;;;;;;;3.07;1.27;;;6.70;99.90;;;;;;4975320;28;20536;-56
2022/02/05 00:48:22;;;;;;;1.30;1.20;;;6.70;99.90;;;;;;4975721;28;20173;-55
2022/02/05 00:51:09;;;;;;;1.30;1.10;;;6.70;99.90;;;;;;4975369;28;20166;-56
2022/02/05 00:53:37;;;;;;;2.13;1.40;;;6.80;99.90;;;;;;4995908;28;20204;-52
2022/02/05 00:56:25;;;;;;;1.30;1.20;;;6.80;99.90;;;;;;4994829;28;20261;-56
2022/02/05 00:58:50;;;;;;;2.30;1.63;;;6.80;99.90;;;;;;4994834;28;20670;-56
2022/02/05 01:01:16;;;;;;;1.50;1.40;;;6.80;99.90;;;;;;4994814;28;20175;-53
2022/02/05 01:03:41;;;;;;;1.67;1.40;;;6.80;99.90;;;;;;4995206;28;20200;-54
2022/02/05 01:06:08;;;;;;;1.47;1.37;;;6.90;99.90;;;;;;4994233;28;20173;-54
2022/02/05 01:08:35;;;;;;;3.70;1.60;;;6.90;99.90;;;;;;4993713;28;20715;-54
2022/02/05 01:11:01;;;;;;;1.53;1.43;;;6.90;99.90;;;;;;4994447;28;20176;-52
2022/02/05 01:13:29;;;;;;;2.50;1.60;;;7.00;99.90;;;;;;4993678;28;20197;-53
2022/02/05 01:16:10;;;;;;;1.70;1.50;;;6.90;99.90;;;;;;4994007;28;20634;-53
2022/02/05 01:18:38;;;;;;;3.33;1.63;;;6.90;99.90;;;;;;4994281;28;20193;-52
2022/02/05 01:23:45;;;;;;;1.67;1.57;;;6.90;99.90;;;;;;4994631;28;20188;-51
2022/02/05 01:26:17;;;;;;;1.40;1.30;;;6.90;99.90;;;;;;4994670;28;20180;-56
2022/02/05 01:28:46;;;;;;;1.77;1.23;;;6.90;99.90;;;;;;4994150;28;20291;-55
2022/02/05 01:31:11;;;;;;;2.33;0.93;;;6.70;99.90;;;;;;4994582;28;20538;-56
2022/02/05 01:33:55;;;;;;;1.00;0.90;;;6.60;99.90;;;;;;4994253;28;20220;-58
2022/02/05 01:55:30;;;;;;;0.43;0.43;;;5.70;99.90;;;;;;4933760;29;20282;-52
2022/02/05 02:21:44;;;;;;;0.87;0.50;;;5.10;99.90;;;;;;4914667;29;20179;-56
2022/02/05 02:24:20;;;;;;;0.70;0.60;;;5.00;99.90;;;;;;4914168;29;20771;-58
2022/02/05 02:27:19;;;;;;;0.80;0.80;;;5.00;99.90;;;;;;4914764;29;20168;-55
2022/02/05 02:30:02;;;;;;;0.60;0.60;;;4.80;99.90;;;;;;4955782;28;20558;-57
2022/02/05 02:32:28;;;;;;;0.80;0.73;;;4.80;99.90;;;;;;4993522;28;20265;-55
2022/02/05 02:35:01;;;;;;;1.10;1.00;;;4.90;99.90;;;;;;4993194;28;20274;-54
2022/02/05 02:37:35;;;;;;;1.40;1.20;;;4.80;99.90;;;;;;4993438;28;20658;-52
2022/02/05 02:40:21;;;;;;;2.17;1.43;;;4.70;99.90;;;;;;4992787;28;20347;-52
2022/02/05 02:42:50;;;;;;;1.50;1.40;;;4.70;99.90;;;;;;4993512;28;20180;-54
2022/02/05 02:45:15;;;;;;;1.77;1.67;;;4.60;99.90;;;;;;4992767;28;20190;-53
2022/02/05 02:47:43;;;;;;;1.50;1.23;;;4.50;99.90;;;;;;4993204;28;20181;-56
2022/02/05 02:50:28;;;;;;;1.60;1.50;;;4.50;99.90;;;;;;4991394;28;20181;-55
2022/02/05 02:58:28;;;;;;;1.70;1.57;;;4.30;99.90;;;;;;4993024;28;20716;-52
2022/02/05 03:00:56;;;;;;;1.97;1.87;;;4.30;99.90;;;;;;4992592;28;20165;-56
2022/02/05 03:03:22;;;;;;;2.30;2.10;;;4.20;99.90;;;;;;4992901;28;20184;-56
2022/02/05 03:05:48;;;;;;;2.17;2.00;;;4.30;99.90;;;;;;4992161;28;20236;-54
2022/02/05 03:08:14;;;;;;;2.20;2.00;;;4.20;99.90;;;;;;4991770;28;20185;-54
2022/02/05 03:10:39;;;;;;;2.30;2.10;;;4.30;99.90;;;;;;4992791;28;20173;-56
2022/02/05 03:13:05;;;;;;;2.40;2.20;;;4.30;99.90;;;;;;4992255;28;20749;-54
2022/02/05 03:15:39;;;;;;;2.60;2.40;;;4.30;99.90;;;;;;4999827;28;20637;-56
2022/02/05 03:18:10;;;;;;;3.07;2.23;;;4.40;99.90;;;;;;4995928;28;20165;-57
2022/02/05 03:20:36;;;;;;;2.40;2.10;;;4.40;99.90;;;;;;4992711;28;20178;-53
2022/02/05 03:23:03;;;;;;;2.57;2.37;;;4.30;99.90;;;;;;4992330;28;20178;-54
2022/02/05 03:25:30;;;;;;;2.20;2.10;;;4.30;99.90;;;;;;4982333;28;20217;-55
2022/02/05 03:27:56;;;;;;;2.40;2.20;;;4.10;99.90;;;;;;4972957;28;20178;-56
2022/02/05 03:30:22;;;;;;;2.60;2.40;;;4.10;99.90;;;;;;4972169;28;20190;-55
2022/02/05 03:32:47;;;;;;;2.87;2.30;;;4.20;99.90;;;;;;4973074;28;20189;-55
2022/02/05 03:35:13;;;;;;;2.17;2.00;;;4.10;99.90;;;;;;4972629;28;20193;-56
2022/02/05 03:37:38;;;;;;;2.70;2.50;;;3.90;99.90;;;;;;4973114;28;20213;-53
2022/02/05 03:40:04;;;;;;;2.70;2.50;;;3.90;99.90;;;;;;4972456;28;20256;-55
2022/02/05 03:42:30;;;;;;;3.00;2.40;;;3.90;99.90;;;;;;4973013;28;20197;-52
2022/02/05 03:44:55;;;;;;;2.67;2.47;;;3.90;99.90;;;;;;4972668;28;20664;-58
2022/02/05 03:47:21;;;;;;;2.77;2.57;;;3.90;99.90;;;;;;4973018;28;20602;-53
2022/02/05 03:49:48;;;;;;;2.33;2.17;;;3.90;99.90;;;;;;4972695;28;20182;-55
2022/02/05 03:52:14;;;;;;;2.40;2.20;;;3.90;99.90;;;;;;4972827;28;20169;-56
2022/02/05 03:54:39;;;;;;;2.50;2.30;;;3.80;99.90;;;;;;4972705;28;20903;-57
2022/02/05 03:57:05;;;;;;;2.30;2.10;;;3.80;99.90;;;;;;4972590;28;20721;-55
2022/02/05 03:59:30;;;;;;;2.40;2.20;;;3.80;99.90;;;;;;4972595;28;20710;-58
2022/02/05 04:01:56;;;;;;;2.67;2.00;;;3.90;99.90;;;;;;4982208;28;20208;-55
2022/02/05 04:04:23;;;;;;;2.23;2.03;;;3.80;99.90;;;;;;4992216;28;20197;-52
2022/02/05 04:06:49;;;;;;;2.73;2.53;;;3.70;99.90;;;;;;4991814;28;20173;-57
2022/02/05 04:09:20;;;;;;;2.50;2.30;;;3.70;99.90;;;;;;4991957;28;20181;-55
2022/02/05 04:16:58;;;;;;;3.00;2.67;;;3.70;99.90;;;;;;4992447;28;20219;-57
2022/02/05 04:19:25;;;;;;;3.10;2.87;;;3.70;99.90;;;;;;4991703;28;20602;-55
2022/02/05 04:21:51;;;;;;;3.10;2.80;;;3.70;99.90;;;;;;4992101;28;20251;-58
2022/02/05 04:24:17;;;;;;;3.30;3.00;;;3.60;99.90;;;;;;4991792;28;20671;-55
2022/02/05 04:26:43;;;;;;;2.90;2.70;;;3.60;99.90;;;;;;4991971;28;20184;-53
2022/02/05 04:29:10;;;;;;;3.40;3.10;;;3.70;99.90;;;;;;4991542;28;20184;-54
2022/02/05 04:31:36;;;;;;;3.03;2.83;;;3.80;99.90;;;;;;4992037;28;20186;-52
2022/02/05 04:34:03;;;;;;;5.40;3.10;;;3.80;99.90;;;;;;4991546;28;20690;-55
2022/02/05 04:36:28;;;;;;;3.33;3.03;;;3.80;99.90;;;;;;4991760;28;20177;-54
2022/02/05 04:38:58;;;;;;;3.50;3.20;;;3.60;99.90;;;;;;4991329;28;20224;-57
2022/02/05 04:41:41;;;;;;;3.30;3.00;;;3.50;99.90;;;;;;4993042;28;20169;-56
2022/02/05 04:54:48;;;;;;;2.90;2.70;;;3.20;99.90;;;;;;4995205;28;20211;-56
2022/02/05 05:21:42;;;;;;;3.03;2.60;;;2.70;99.90;;;;;;4916044;29;20250;-56
2022/02/05 05:24:08;;;;;;;2.47;2.27;;;2.60;99.90;;;;;;4915434;29;20231;-53
2022/02/05 05:26:33;;;;;;;4.63;2.37;;;2.60;99.90;;;;;;4915390;29;20191;-56
2022/02/05 05:28:59;;;;;;;2.70;2.50;;;2.60;99.90;;;;;;4915030;29;20212;-57
2022/02/05 05:31:24;;;;;;;2.63;2.43;;;2.60;99.90;;;;;;4915535;29;20199;-54
2022/02/05 05:33:50;;;;;;;2.90;2.47;;;2.60;99.90;;;;;;4914999;29;20224;-55
2022/02/05 05:36:15;;;;;;;6.47;3.13;;;2.60;99.90;;;;;;4915310;29;20188;-55
2022/02/05 05:38:41;;;;;;;2.60;2.40;;;2.60;99.90;;;;;;4960069;28;20698;-57
2022/02/05 05:41:08;;;;;;;3.33;2.83;;;2.70;99.90;;;;;;4994296;28;20520;-52
2022/02/05 05:46:15;;;;;;;3.27;2.90;;;2.50;99.90;;;;;;4994087;28;20173;-56
2022/02/05 05:48:57;;;;;;;4.00;2.50;;;2.50;99.90;;;;;;4994212;28;20177;-55
2022/02/05 05:51:23;;;;;;;3.70;2.60;;;2.60;99.90;;;;;;4993916;28;20532;-56
2022/02/05 05:53:48;;;;;;;4.20;2.47;;;2.50;99.90;;;;;;4993440;28;20197;-56
2022/02/05 05:56:15;;;;;;;2.70;2.47;;;2.50;99.90;;;;;;4993708;28;20200;-58
2022/02/05 05:58:40;;;;;;;3.60;2.57;;;2.50;99.90;;;;;;4994001;28;20590;-55
2022/02/05 06:01:06;;;;;;;2.77;2.50;;;2.50;99.90;;;;;;4990869;28;20170;-55
2022/02/05 06:03:33;;;;;;;3.90;2.50;;;2.50;99.90;;;;;;4974587;28;20196;-55
2022/02/05 06:05:58;;;;;;;3.37;2.40;;;2.50;99.90;;;;;;4974206;28;20643;-56
2022/02/05 06:08:24;;;;;;;2.50;2.30;;;2.50;99.90;;;;;;4974275;28;20177;-53
2022/02/05 06:10:49;;;;;;;3.10;2.43;;;2.50;99.90;;;;;;4974416;28;20170;-55
2022/02/05 06:13:15;;;;;;;4.53;2.20;;;2.50;99.90;;;;;;4974181;28;20192;-55
2022/02/05 06:15:41;;;;;;;3.30;2.30;;;2.50;99.90;;;;;;4975615;28;20180;-55
2022/02/05 06:18:08;;;;;;;3.87;2.27;;;2.60;99.90;;;;;;4973916;28;20170;-56
2022/02/05 06:20:34;;;;;;;4.73;2.33;;;2.50;99.90;;;;;;5005368;28;20189;-55
2022/02/05 06:23:00;;;;;;;3.50;2.30;;;2.50;99.90;;;;;;4993382;28;20176;-57
2022/02/05 06:25:25;;;;;;;3.60;2.30;;;2.50;99.90;;;;;;4993550;28;20177;-51
2022/02/05 06:27:51;;;;;;;3.73;2.53;;;3.70;99.90;;;;;;4993415;28;20231;-54
2022/02/05 06:30:17;;;;;;;5.13;2.70;;;2.40;99.90;;;;;;4993250;28;20181;-51
2022/02/05 06:32:42;;;;;;;2.97;2.30;;;2.40;99.90;;;;;;4993388;28;20200;-58
2022/02/05 06:35:09;;;;;;;3.73;2.33;;;2.40;99.90;;;;;;4992885;28;20733;-51
2022/02/05 06:37:34;;;;;;;4.53;2.40;;;2.40;99.90;;;;;;4993491;28;20252;-53
2022/02/05 06:40:00;;;;;;;2.40;2.20;;;2.40;99.90;;;;;;4992797;28;20761;-51
2022/02/05 06:42:25;;;;;;;3.03;2.27;;;2.50;99.90;;;;;;4993327;28;20582;-55
2022/02/05 06:44:51;;;;;;;2.77;2.43;;;2.40;99.90;;;;;;4992770;28;20225;-56
2022/02/05 06:47:16;;;;;;;2.80;2.27;;;2.40;99.90;;;;;;4993200;28;20212;-52
2022/02/05 06:49:42;;;;;;;4.13;2.33;;;2.30;99.90;;;;;;4992529;28;20526;-50
2022/02/05 06:52:10;;;;;;;5.13;2.50;;;2.40;99.90;;;;;;4993281;28;20253;-52
2022/02/05 06:54:35;;;;;;;2.90;2.60;;;2.40;99.90;;;;;;4992907;28;20283;-52
2022/02/05 06:57:01;;;;;;;2.77;2.40;;;2.40;99.90;;;;;;4992831;28;20673;-52
2022/02/05 06:59:27;;;;;;;5.73;2.37;;;2.40;99.90;;;;;;4992795;28;20204;-54
2022/02/05 07:01:52;;;;;;;4.90;2.70;;;2.30;99.90;;;;;;4983873;28;20192;-54
2022/02/05 07:04:23;;;;;;;3.60;2.53;;;2.40;99.90;;;;;;4972718;28;20202;-53
2022/02/05 07:06:50;;;;;;;3.23;2.40;;;2.50;99.90;;;;;;4972971;28;20174;-51
2022/02/05 07:09:15;;;;;;;4.43;2.60;;;2.60;99.90;;;;;;4973365;28;20182;-55
2022/02/05 07:11:41;;;;;;;3.40;2.30;;;2.70;99.90;;;;;;4973093;28;20174;-57
2022/02/05 07:14:08;;;;;;;2.83;2.43;;;2.70;99.90;;;;;;4973327;28;20224;-50
2022/02/05 07:16:38;;;;;;;3.13;2.20;;;2.70;99.90;;;;;;4982626;28;20272;-55
2022/02/05 07:21:34;;;;;;;2.33;2.10;;;2.70;99.90;;;;;;4977601;28;20166;-56
2022/02/05 07:29:17;;;;;;;4.40;2.23;;;2.60;99.90;;;;;;4977981;28;20217;-56
2022/02/05 07:31:46;;;;;;;3.80;2.40;;;2.50;99.90;;;;;;4992799;28;20209;-56
2022/02/05 07:34:12;;;;;;;2.30;2.00;;;2.50;99.90;;;;;;4992232;28;20218;-55
2022/02/05 07:36:37;;;;;;;2.03;1.90;;;2.50;99.90;;;;;;4992505;28;20235;-53
2022/02/05 07:39:06;;;;;;;2.40;2.20;;;2.60;99.90;;;;;;4991977;28;20670;-56
2022/02/05 07:41:31;;;;;;;2.83;2.10;;;2.60;99.90;;;;;;4992499;28;20165;-55
2022/02/05 07:43:57;;;;;;;3.33;1.90;;;2.60;99.90;;;;;;4992084;28;20192;-58
2022/02/05 07:46:23;;;;;;;2.97;2.50;;;2.60;99.90;;;;;;4992286;28;20210;-54
2022/02/05 07:48:49;;;;;;;2.37;1.70;;;2.50;99.90;;;;;;4992271;28;20196;-55
2022/02/05 07:51:14;;;;;;;4.33;2.40;;;2.50;99.90;;;;;;4992260;28;20283;-55
2022/02/05 07:53:40;;;;;;;5.13;2.00;;;2.50;99.90;;;;;;4990089;28;20205;-54
2022/02/05 07:56:06;;;;;;;3.77;2.27;;;2.60;99.90;;;;;;4963001;28;20816;-55
2022/02/05 07:58:34;;;;;;;4.10;2.17;;;2.60;99.90;;;;;;4989447;28;20235;-53
2022/02/05 08:01:00;;;;;;;2.30;2.00;;;2.60;99.90;;;;;;4992077;28;20169;-56
2022/02/05 08:03:25;;;;;;;3.33;2.07;;;2.80;99.90;;;;;;4988456;28;20296;-54
2022/02/05 08:05:51;;;;;;;4.57;2.00;;;2.80;99.90;;;;;;4974656;28;20185;-54
2022/02/05 08:08:20;;;;;;;3.97;2.00;;;2.70;99.90;;;;;;4983634;28;20664;-53
2022/02/05 08:10:59;;;;;;;2.03;1.80;;;2.70;99.90;;;;;;4972750;28;20249;-52
2022/02/05 08:13:27;;;;;;;2.63;1.90;;;2.70;99.90;;;;;;4989616;28;20207;-52
2022/02/05 08:15:57;;;;;;;4.90;1.83;;;2.70;99.90;;;;;;4992204;28;20245;-56
2022/02/05 08:18:23;;;;;;;5.43;1.60;;;2.70;99.90;;;;;;4995482;28;20165;-51
2022/02/05 08:20:49;;;;;;;6.10;1.90;;;2.80;99.90;;;;;;4995869;28;20181;-54
2022/02/05 08:23:14;;;;;;;2.07;1.60;;;2.70;99.90;;;;;;4995644;28;20574;-54
2022/02/05 08:25:40;;;;;;;3.10;1.70;;;2.70;99.90;;;;;;4995549;28;20188;-53
2022/02/05 08:28:05;;;;;;;2.87;1.80;;;2.70;99.90;;;;;;4995555;28;20177;-49
2022/02/05 08:30:31;;;;;;;2.63;1.50;;;2.80;99.90;;;;;;4995758;28;20234;-50
2022/02/05 08:32:59;;;;;;;3.07;1.57;;;2.90;99.90;;;;;;4995348;28;20196;-51
2022/02/05 08:35:24;;;;;;;1.57;1.40;;;2.90;99.90;;;;;;4995558;28;20173;-52
2022/02/05 08:37:52;;;;;;;3.50;1.57;;;2.90;99.90;;;;;;4994713;28;20593;-51
2022/02/05 08:40:18;;;;;;;4.17;1.53;;;2.90;99.90;;;;;;4995438;28;20988;-49
2022/02/05 08:42:43;;;;;;;2.10;1.80;;;2.80;99.90;;;;;;4995582;28;20256;-53
2022/02/05 08:45:10;;;;;;;3.07;1.97;;;2.90;99.90;;;;;;4995154;28;20593;-54
2022/02/05 08:47:36;;;;;;;2.83;1.63;;;2.90;99.90;;;;;;4979237;28;20616;-52
2022/02/05 08:50:02;;;;;;;2.60;1.60;;;2.90;99.90;;;;;;4980057;28;20256;-53
2022/02/05 08:52:28;;;;;;;3.87;2.37;;;2.90;99.90;;;;;;4987614;28;20539;-52
2022/02/05 08:54:54;;;;;;;2.17;1.53;;;2.90;99.90;;;;;;4983934;28;20223;-54
2022/02/05 08:57:19;;;;;;;2.67;1.73;;;2.80;99.90;;;;;;4966053;28;20247;-57
2022/02/05 09:00:05;;;;;;;5.13;1.93;;;2.90;99.90;;;;;;4978976;28;20201;-56
2022/02/05 09:02:54;;;;;;;4.23;1.80;;;2.90;99.90;;;;;;4980590;28;20199;-55
2022/02/05 09:08:19;;;;;;;6.23;2.30;;;3.30;99.90;;;;;;4982779;28;20205;-59
2022/02/05 09:10:55;;;;;;;4.83;1.70;;;3.50;99.90;;;;;;4985194;28;20184;-57
2022/02/05 09:13:40;;;;;;;2.33;1.60;;;4.40;99.90;;;;;;4998346;28;20581;-55
2022/02/05 09:16:08;;;;;;;4.07;1.50;;;5.70;99.90;;;;;;4994710;28;20177;-52
2022/02/05 09:18:34;;;;;;;2.53;1.63;;;6.50;99.90;;;;;;4979113;28;20185;-56
2022/02/05 09:21:00;;;;;;;3.00;1.50;;;7.80;99.90;;;;;;4975455;28;20547;-54
2022/02/05 09:23:26;;;;;;;3.83;1.43;;;9.00;99.90;;;;;;4975375;28;20190;-56
2022/02/05 09:25:52;;;;;;;1.77;1.20;;;9.90;99.90;;;;;;4975216;28;20182;-54
2022/02/05 09:28:20;;;;;;;2.60;1.30;;;10.70;99.90;;;;;;4985982;28;20197;-53
2022/02/05 09:30:50;;;;;;;2.67;2.33;;;10.10;99.90;;;;;;4979156;28;20183;-55
2022/02/05 09:33:17;;;;;;;2.03;1.50;;;10.60;99.90;;;;;;4989770;28;20217;-54
2022/02/05 09:35:43;;;;;;;1.83;1.43;;;10.70;99.90;;;;;;4988349;28;20181;-49
2022/02/05 09:38:08;;;;;;;2.80;1.50;;;9.20;99.90;;;;;;4984051;28;20252;-58
2022/02/05 09:40:34;;;;;;;3.57;1.53;;;8.60;99.90;;;;;;4984420;28;20571;-52
2022/02/05 09:42:59;;;;;;;2.50;1.33;;;9.50;99.90;;;;;;4983126;28;20224;-51
2022/02/05 09:45:25;;;;;;;4.93;1.77;;;10.50;99.90;;;;;;4984693;28;20524;-55
2022/02/05 09:47:51;;;;;;;3.30;1.40;;;11.40;99.90;;;;;;4984152;28;20171;-54
2022/02/05 09:50:20;;;;;;;3.73;1.50;;;11.00;99.90;;;;;;4982633;28;20174;-57
2022/02/05 09:52:50;;;;;;;1.80;1.53;;;10.20;99.90;;;;;;4983647;28;20193;-55
2022/02/05 09:55:16;;;;;;;4.17;1.50;;;9.20;99.90;;;;;;4982644;28;20193;-58
2022/02/05 09:57:42;;;;;;;1.53;1.33;;;9.50;99.90;;;;;;4985011;28;20196;-52
2022/02/05 10:00:15;;;;;;;3.33;1.50;;;11.30;99.90;;;;;;4982020;28;20255;-56
2022/02/05 10:02:40;;;;;;;4.33;1.70;;;11.50;99.30;;;;;;4984798;28;20182;-56
2022/02/05 10:05:16;;;;;;;4.43;1.97;;;10.70;99.20;;;;;;4988577;28;20192;-55
2022/02/05 10:08:06;;;;;;;2.63;1.80;;;9.20;99.90;;;;;;4974607;28;20169;-54
2022/02/05 10:10:45;;;;;;;3.90;1.90;;;8.00;99.90;;;;;;4974433;28;20170;-55
2022/02/05 10:13:13;;;;;;;2.20;1.70;;;7.20;99.90;;;;;;4974083;28;20209;-54
2022/02/05 10:15:41;;;;;;;3.73;1.80;;;6.80;99.90;;;;;;4974266;28;20174;-58
2022/02/05 10:18:08;;;;;;;4.40;2.03;;;7.30;99.90;;;;;;4973723;28;20213;-58
2022/02/05 10:20:39;;;;;;;3.87;2.03;;;7.30;99.90;;;;;;4974095;28;20570;-52
2022/02/05 10:23:09;;;;;;;3.30;2.07;;;6.50;99.90;;;;;;4973798;28;20174;-54
2022/02/05 10:25:35;;;;;;;3.07;2.07;;;5.70;99.90;;;;;;4979948;28;20573;-57
2022/02/05 10:28:01;;;;;;;2.87;1.90;;;5.50;99.90;;;;;;4951729;28;20176;-56
2022/02/05 10:30:29;;;;;;;2.63;1.93;;;5.40;99.90;;;;;;4983976;28;20178;-55
2022/02/05 10:33:09;;;;;;;4.73;2.53;;;5.30;99.90;;;;;;4961757;28;20193;-54
2022/02/05 10:44:14;;;;;;;4.03;1.97;;;5.20;99.90;;;;;;4979087;28;20572;-51
2022/02/05 10:46:43;;;;;;;2.97;2.10;;;5.10;99.90;;;;;;4983167;28;20181;-57
2022/02/05 10:49:32;;;;;;;2.70;1.90;;;5.00;99.90;;;;;;4981290;28;20184;-54
2022/02/05 10:52:00;;;;;;;4.73;2.13;;;4.90;99.90;;;;;;4983624;28;20228;-56
2022/02/05 10:54:38;;;;;;;3.63;1.90;;;4.90;99.90;;;;;;4981723;28;20256;-51
2022/02/05 10:57:14;;;;;;;4.37;2.30;;;4.90;99.90;;;;;;4981668;28;20181;-56
2022/02/05 11:05:51;;;;;;;3.33;2.27;;;4.90;99.90;;;;;;4987039;28;20201;-56
2022/02/05 11:08:22;;;;;;;3.57;2.10;;;4.90;99.90;;;;;;4981978;28;20173;-56
2022/02/05 11:18:56;;;;;;;2.57;2.03;;;4.90;99.90;;;;;;4983661;28;20706;-56
2022/02/05 11:21:28;;;;;;;2.80;2.10;;;5.20;99.90;;;;;;4983329;28;20173;-55
2022/02/05 11:24:02;;;;;;;4.87;2.23;;;5.60;99.90;;;;;;4981602;28;20185;-53
2022/02/05 11:26:29;;;;;;;3.43;1.90;;;5.80;99.90;;;;;;4966058;28;20169;-58
2022/02/05 11:28:58;;;;;;;5.37;2.20;;;6.00;99.90;;;;;;4986848;28;20204;-56
2022/02/05 11:31:33;;;;;;;4.50;2.17;;;6.50;99.90;;;;;;4966096;28;20641;-56
2022/02/05 11:34:25;;;;;;;3.10;2.00;;;7.00;99.90;;;;;;4983916;28;20236;-56
2022/02/05 11:37:12;;;;;;;2.73;1.90;;;7.20;99.90;;;;;;4983388;28;20173;-55
2022/02/05 11:39:47;;;;;;;3.80;1.77;;;7.00;99.90;;;;;;4983147;28;20255;-55
2022/02/05 11:42:35;;;;;;;2.97;1.77;;;6.80;99.90;;;;;;4983469;28;20196;-56
2022/02/05 11:45:26;;;;;;;3.60;1.93;;;6.70;99.90;;;;;;4989932;28;20197;-56
2022/02/05 11:47:57;;;;;;;4.03;1.93;;;6.40;99.90;;;;;;4987393;28;20682;-55
2022/02/05 11:50:26;;;;;;;6.17;4.10;;;6.20;99.90;;;;;;4992574;28;20173;-56
2022/02/05 11:52:52;;;;;;;3.20;2.00;;;6.10;99.90;;;;;;4996381;28;20224;-58
2022/02/05 11:55:26;;;;;;;2.73;1.77;;;5.80;99.90;;;;;;4989648;28;20209;-52
2022/02/05 11:58:01;;;;;;;5.17;2.50;;;5.40;99.90;;;;;;4989765;28;20212;-51
2022/02/05 12:00:38;;;;;;;3.97;2.13;;;5.20;99.90;;;;;;4983648;28;20908;-57
2022/02/05 12:03:26;;;;;;;2.10;1.90;;;5.10;99.90;;;;;;4988631;28;20248;-56
2022/02/05 12:05:55;;;;;;;3.60;1.90;;;5.30;99.90;;;;;;4984789;28;20686;-53
2022/02/05 12:08:34;;;;;;;3.23;1.93;;;5.60;99.90;;;;;;4995805;28;20169;-51
2022/02/05 12:11:03;;;;;;;3.47;1.87;;;6.00;99.90;;;;;;4977789;28;20232;-55
2022/02/05 12:13:38;;;;;;;2.10;1.77;;;6.10;99.90;;;;;;4982728;28;20227;-55
2022/02/05 12:16:05;;;;;;;4.77;2.10;;;6.10;99.90;;;;;;4980121;28;20668;-53
2022/02/05 12:18:51;;;;;;;3.40;2.00;;;6.10;99.90;;;;;;4981490;28;20266;-54
2022/02/05 12:21:27;;;;;;;4.03;2.20;;;6.20;99.90;;;;;;4983672;28;20252;-56
2022/02/05 12:26:25;;;;;;;2.50;1.83;;;6.20;99.90;;;;;;4974860;28;20279;-56
2022/02/05 12:28:54;;;;;;;3.03;2.00;;;6.00;99.90;;;;;;4973892;28;20260;-52
2022/02/05 12:31:25;;;;;;;4.13;1.80;;;6.00;99.90;;;;;;4974105;28;20574;-54
2022/02/05 12:34:00;;;;;;;4.10;1.90;;;6.00;99.90;;;;;;4974156;28;20225;-57
2022/02/05 12:36:42;;;;;;;2.87;1.67;;;5.80;99.90;;;;;;4974604;28;20185;-56
2022/02/05 12:39:11;;;;;;;4.20;1.80;;;5.60;99.90;;;;;;4974452;28;20225;-54
2022/02/05 12:41:38;;;;;;;2.47;1.63;;;5.50;99.90;;;;;;4975529;28;20750;-54
2022/02/05 12:44:06;;;;;;;2.90;1.63;;;5.50;99.90;;;;;;4975851;28;20683;-57
2022/02/05 12:46:33;;;;;;;3.83;2.00;;;5.60;99.90;;;;;;4975734;28;20176;-56
2022/02/05 12:49:04;;;;;;;3.13;1.80;;;5.50;99.90;;;;;;4975679;28;20181;-54
2022/02/05 12:51:33;;;;;;;3.60;1.57;;;5.60;99.90;;;;;;4975948;28;20217;-54
2022/02/05 12:54:06;;;;;;;2.67;1.60;;;5.60;99.90;;;;;;4975752;28;20702;-53
2022/02/05 12:56:37;;;;;;;3.87;1.93;;;5.40;99.90;;;;;;4975450;28;20174;-55
2022/02/05 12:59:08;;;;;;;3.50;1.53;;;5.40;99.90;;;;;;4975351;28;20194;-57
2022/02/05 13:01:37;;;;;;;3.03;1.70;;;5.60;99.90;;;;;;4975426;28;20178;-57
2022/02/05 13:04:20;;;;;;;2.97;1.53;;;6.10;99.90;;;;;;4975571;28;20221;-57
2022/02/05 13:07:00;;;;;;;2.63;1.50;;;7.00;99.90;;;;;;4975375;28;20571;-56
2022/02/05 13:09:27;;;;;;;3.67;1.60;;;7.60;99.90;;;;;;4975362;28;20269;-58
2022/02/05 13:12:05;;;;;;;2.40;1.50;;;7.60;99.90;;;;;;4958359;28;20568;-56
2022/02/05 13:15:06;;;;;;;3.93;1.73;;;7.30;99.90;;;;;;4975178;28;20702;-56
2022/02/05 13:26:08;;;;;;;3.77;1.57;;;5.80;99.90;;;;;;4975237;28;20185;-51
2022/02/05 13:28:49;;;;;;;2.63;1.30;;;5.90;99.90;;;;;;4974894;28;20166;-52
2022/02/05 13:34:09;;;;;;;4.00;1.60;;;5.70;99.90;;;;;;4975235;28;20244;-51
2022/02/05 13:36:43;;;;;;;3.53;1.57;;;5.70;99.90;;;;;;4974900;28;20651;-57
2022/02/05 13:42:18;;;;;;;3.90;1.30;;;5.70;99.90;;;;;;4915078;29;20184;-53
2022/02/05 13:44:55;;;;;;;2.80;1.50;;;5.70;99.90;;;;;;4914951;29;20702;-52
2022/02/05 13:47:23;;;;;;;2.83;1.33;;;5.70;99.90;;;;;;4915213;29;20319;-52
2022/02/05 13:50:01;;;;;;;3.27;1.40;;;6.00;99.90;;;;;;4914717;29;20267;-52
2022/02/05 13:52:41;;;;;;;1.70;1.10;;;6.10;99.90;;;;;;4915113;29;20274;-54
2022/02/05 13:55:09;;;;;;;2.47;1.10;;;6.10;99.90;;;;;;4914653;29;20728;-51
2022/02/05 13:57:34;;;;;;;2.60;1.50;;;6.20;99.90;;;;;;4899388;29;20258;-55
2022/02/05 14:00:00;;;;;;;2.93;1.40;;;6.40;99.90;;;;;;4914336;29;20204;-51
2022/02/05 14:02:25;;;;;;;1.57;1.00;;;6.40;99.90;;;;;;4914927;29;20180;-51
2022/02/05 14:05:18;;;;;;;2.50;1.23;;;6.60;99.90;;;;;;4914641;29;20593;-55
2022/02/05 14:07:47;;;;;;;1.93;1.17;;;6.80;99.90;;;;;;4914906;29;20625;-52
2022/02/05 14:10:18;;;;;;;2.43;1.40;;;6.60;99.90;;;;;;4914324;29;20213;-56
2022/02/05 14:12:56;;;;;;;2.00;1.10;;;6.30;99.90;;;;;;4914652;29;20315;-53
2022/02/05 14:15:25;;;;;;;2.17;1.17;;;6.20;99.90;;;;;;4913662;29;20227;-55
2022/02/05 14:18:12;;;;;;;1.67;1.10;;;6.10;99.90;;;;;;4947785;28;20201;-51
2022/02/05 14:21:07;;;;;;;3.80;1.23;;;5.90;99.90;;;;;;4973949;28;20289;-51
2022/02/05 14:23:33;;;;;;;2.03;1.10;;;5.70;99.90;;;;;;4914379;29;20246;-54
2022/02/05 14:26:12;;;;;;;2.73;1.30;;;6.30;99.90;;;;;;4914223;29;20532;-53
2022/02/05 14:28:45;;;;;;;2.17;1.20;;;5.70;99.90;;;;;;4914331;29;20616;-53
2022/02/05 14:31:20;;;;;;;1.70;0.90;;;5.70;99.90;;;;;;4914478;29;20172;-57
2022/02/05 14:41:59;;;;;;;2.47;1.20;;;6.60;99.90;;;;;;4914488;29;20231;-54
2022/02/05 14:44:25;;;;;;;2.00;1.10;;;6.80;99.90;;;;;;4914030;29;20209;-56
2022/02/05 14:46:51;;;;;;;1.20;0.93;;;6.60;99.90;;;;;;4913815;29;20180;-55
2022/02/05 14:49:17;;;;;;;2.63;1.13;;;6.40;99.90;;;;;;4914048;29;20183;-53
2022/02/05 14:51:43;;;;;;;4.97;1.53;;;6.30;99.90;;;;;;4914281;29;20187;-55
2022/02/05 14:54:09;;;;;;;1.90;1.00;;;6.20;99.90;;;;;;4914004;29;20243;-52
2022/02/05 14:56:36;;;;;;;2.07;1.30;;;6.40;99.90;;;;;;4913636;29;20214;-53
2022/02/05 14:59:04;;;;;;;1.67;1.07;;;6.50;99.90;;;;;;4920797;28;20626;-52
2022/02/05 15:01:29;;;;;;;3.37;1.50;;;6.50;99.90;;;;;;4973489;28;20229;-54
2022/02/05 15:03:55;;;;;;;2.73;1.27;;;6.60;99.90;;;;;;4973603;28;20194;-53
2022/02/05 15:06:25;;;;;;;2.60;1.20;;;6.90;99.90;;;;;;4973324;28;20575;-56
2022/02/05 15:08:52;;;;;;;3.43;1.37;;;7.40;99.90;;;;;;4973107;28;20643;-53
2022/02/05 15:11:19;;;;;;;2.10;1.33;;;7.70;99.90;;;;;;4973379;28;20200;-51
2022/02/05 15:13:46;;;;;;;3.87;1.40;;;7.90;99.90;;;;;;4973209;28;20194;-52
2022/02/05 15:16:15;;;;;;;3.37;1.37;;;8.00;99.90;;;;;;4973121;28;20252;-51
2022/02/05 15:18:47;;;;;;;1.40;1.20;;;8.00;99.90;;;;;;4972846;28;20174;-53
2022/02/05 15:21:12;;;;;;;3.37;1.20;;;8.00;99.90;;;;;;4973429;28;20228;-53
2022/02/05 15:23:38;;;;;;;2.30;1.10;;;7.80;99.90;;;;;;4973129;28;20276;-57
2022/02/05 15:26:04;;;;;;;3.70;1.50;;;7.50;99.90;;;;;;4972205;28;20301;-53
2022/02/05 15:28:30;;;;;;;2.27;1.30;;;7.50;99.90;;;;;;4972821;28;20184;-56
2022/02/05 15:30:57;;;;;;;3.97;1.50;;;7.60;99.90;;;;;;4972969;28;20644;-56
2022/02/05 15:33:23;;;;;;;5.40;1.40;;;7.60;99.90;;;;;;4972651;28;20216;-54
2022/02/05 15:35:51;;;;;;;2.93;1.17;;;7.60;99.90;;;;;;4972947;28;20185;-55
2022/02/05 15:38:24;;;;;;;2.17;1.30;;;7.70;99.90;;;;;;4972738;28;20174;-58
2022/02/05 15:43:46;;;;;;;2.57;1.40;;;7.50;99.90;;;;;;4973009;28;20221;-56
2022/02/05 15:46:13;;;;;;;3.47;1.40;;;7.40;99.90;;;;;;4972785;28;20172;-56
2022/02/05 15:48:39;;;;;;;1.40;1.17;;;7.30;99.90;;;;;;4972609;28;20162;-55
2022/02/05 15:51:06;;;;;;;2.50;1.20;;;7.30;99.90;;;;;;4973012;28;20173;-53
2022/02/05 15:53:34;;;;;;;3.43;1.60;;;7.10;99.90;;;;;;4973339;28;20193;-52
2022/02/05 15:56:02;;;;;;;3.47;1.50;;;7.10;99.90;;;;;;4972567;28;20195;-55
2022/02/05 15:58:35;;;;;;;2.07;1.20;;;6.90;99.90;;;;;;4972747;28;20721;-55
2022/02/05 16:01:02;;;;;;;2.03;1.53;;;6.70;99.90;;;;;;4972615;28;20202;-56
2022/02/05 16:03:28;;;;;;;3.80;1.47;;;6.70;99.90;;;;;;4972729;28;20203;-54
2022/02/05 16:05:54;;;;;;;2.47;1.37;;;6.60;99.90;;;;;;4972383;28;20170;-55
2022/02/05 16:08:19;;;;;;;3.43;1.60;;;6.50;99.90;;;;;;4972736;28;20205;-57
2022/02/05 16:10:45;;;;;;;2.93;1.40;;;6.20;99.90;;;;;;4972464;28;20174;-55
2022/02/05 16:13:10;;;;;;;1.97;1.43;;;6.00;99.90;;;;;;4972447;28;20181;-57
2022/02/05 16:15:36;;;;;;;2.63;1.70;;;5.80;99.90;;;;;;4972362;28;20182;-53
2022/02/05 16:18:01;;;;;;;2.80;1.30;;;5.80;99.90;;;;;;4972605;28;20189;-57